André Teixeira

Chefscout - Ceará
8 Okt 2026
Donnerstag
Verarbeitung

Persönlichkeit

Anpassungsfähigkeit (7) Ehrgeiz (20) Kontroverse (10) Loyalität (4) Druck (6) Professionalität (18) Fairness (18) Temperament (6)

Profil

Trainerstil Demokratisch
Lizenz Kontinentale Pro
Entschlossenheit 10
Menschenführung 9
Motivation 10
Disziplin 4
Arbeitszufriedenheit
50%
Ermüdung
0%
Rolle Chefscout
Gehalt 93.9K p/W
Vertrag 14.03.2028

Leistung

Verhalten Normal
Trainingseffektivität
20%
Spielerentwicklung
50%
Verletzungsprävention
45%
Taktische Umsetzung
20%

Letzte Ereignisse

Nahm an einer Scouting-Besprechung teil jetzt
Nahm an einer Scouting-Besprechung teil jetzt
Nahm an einer Scouting-Besprechung teil jetzt
Spieler begutachtet jetzt
Spieler begutachtet 7T her
Spieler begutachtet 7T her
Spieler begutachtet 7T her
Spieler begutachtet 7T her

Aktuell beobachtet

99
Spieler Verein Status Fähigkeit Vertrauen Beobachtet Zuletzt beobachtet Letzte Stimme
Ignacio de Arruabarrena Arouca Aktiv 113 / 126 40% 2 07.10.2026 -
Josh Keeley Luton Town Aktiv 132 / 120 40% 1 07.10.2026 -
Lazar Carević Famalicao Aktiv 141 / 114 40% 2 06.10.2026 -
Vitor Hugo Lusitânia Lourosa Aktiv 104 / 88 40% 1 06.10.2026 -
Mateo Cassierra Atlético Mineiro Aktiv 124 / 120 40% 1 06.10.2026 -
David Garnier Chamois Niortais Aktiv 115 / 142 40% 1 06.10.2026 -
Francisco Meixedo Feirense Aktiv 93 / 99 40% 2 04.10.2026 -
Daniel Iversen Preston Aktiv 138 / 128 40% 1 04.10.2026 -
Sead Hakšabanović Malmo FF Aktiv 113 / 106 40% 1 04.10.2026 -
Marcos Paulo Juventude Aktiv 129 / 107 40% 1 04.10.2026 -
Kévin Denkey FC Cincinnati Aktiv 116 / 131 40% 1 03.10.2026 -
Tamble Monteiro Rio Ave Aktiv 121 / 102 40% 1 03.10.2026 -
Will Mannion Charlton Athletic Aktiv 106 / 94 40% 2 01.10.2026 -
Caoimhin Kelleher Brentford Aktiv 149 / 152 40% 2 01.10.2026 -
Christian Joel Sánchez Leiria Aktiv 116 / 117 40% 2 30.09.2026 -
Liel Abada Charlotte Football Club Aktiv 124 / 118 40% 1 30.09.2026 -
Yuri Alberto Corinthians Aktiv 130 / 142 40% 1 30.09.2026 Mehr Infos nötig
Felipe Parra Envigado Aktiv 132 / 126 40% 1 30.09.2026 -
Francisco Salerno Defensores Unidos Aktiv 107 / 102 40% 1 29.09.2026 -
Cezary Miszta Rio Ave Aktiv 124 / 118 40% 4 28.09.2026 -
Gabriel Batista Botafogo Aktiv 133 / 138 40% 1 28.09.2026 -
Sébastien Cibois Portimonense Aktiv 103 / 110 40% 2 27.09.2026 -
Gabriel Grando Grêmio Aktiv 129 / 112 40% 1 27.09.2026 -
Vitor Roque Palmeiras Aktiv 134 / 141 40% 1 26.09.2026 -
Rodrigo Castillo Fluminense Aktiv 116 / 118 40% 1 26.09.2026 -
Khama Dolly Platinum Stars Aktiv 124 / 121 40% 1 25.09.2026 -
Juan Brunetta Tigres Aktiv 137 / 132 40% 1 25.09.2026 -
Luis Ingolotti Atlético Tucumán Aktiv 131 / 132 40% 1 23.09.2026 -
Vitor Eudes Fluminense Aktiv 104 / 105 40% 1 23.09.2026 -
Ivor Pandur Hull City Aktiv 126 / 124 40% 1 22.09.2026 -
Lucas Arcanjo Vitória Aktiv 120 / 129 40% 1 21.09.2026 -
Jakub Stolarczyk Leicester City Aktiv 137 / 139 40% 1 21.09.2026 -
Pau Víctor AVS Aktiv 134 / 150 40% 1 21.09.2026 -
André Silva Tondela Aktiv 123 / 121 40% 1 21.09.2026 -
Marcelo Estigarribia Unión de Santa Fe Aktiv 123 / 126 40% 1 20.09.2026 -
Luka Gavran Toronto FC Aktiv 105 / 124 40% 1 19.09.2026 -
Esteban Glellel Quilmes Aktiv 119 / 105 40% 1 19.09.2026 -
Vangelis Pavlidis Twente Aktiv 141 / 141 40% 2 18.09.2026 -
August Priske Birmingham Aktiv 114 / 134 40% 1 18.09.2026 -
João Gonçalves Felgueiras Aktiv 105 / 96 40% 2 17.09.2026 -
Matheus Mendes Alverca Aktiv 132 / 105 40% 2 17.09.2026 -
Patrick Sequeira Casa Pia Aktiv 121 / 123 40% 3 15.09.2026 -
Adriel Torreense Aktiv 115 / 125 40% 3 15.09.2026 -
Bernardo Fontes Braga Aktiv 139 / 144 40% 1 14.09.2026 -
Matt Freese New York City Aktiv 128 / 116 40% 1 14.09.2026 -
Andrés Gudiño Cruz Azul Aktiv 127 / 116 40% 1 13.09.2026 -
Luciano Jachfe Nueva Chicago Aktiv 116 / 121 40% 1 13.09.2026 -
Gabriel Jesus Barcelona Aktiv 160 / 160 40% 2 12.09.2026 -
Víctor Cabezas Union Magdalena Aktiv 124 / 109 40% 1 12.09.2026 -
Patrick Schulte Columbus Crew Aktiv 124 / 134 40% 1 12.09.2026 -
Hákon Rafn Valdimarsson Brentford Aktiv 133 / 124 40% 1 11.09.2026 -
Fotis Ioannidis Rio Ave Aktiv 124 / 153 40% 2 10.09.2026 -
Dejan Joveljić Seattle Sounders Aktiv 116 / 116 40% 1 10.09.2026 -
Alexander Nübel Besiktas Aktiv 141 / 137 40% 1 08.09.2026 -
Jhojan Julio Queretaro Aktiv 106 / 129 40% 1 07.09.2026 -
Roberto Fernández Braga Aktiv 134 / 144 40% 1 07.09.2026 -
Max O'Leary West Bromwich Albion Aktiv 119 / 135 40% 1 07.09.2026 -
Chris Brady Chicago Fire Aktiv 115 / 126 40% 1 06.09.2026 -
Alfonso Pastor Maritimo Aktiv 100 / 121 40% 1 04.09.2026 -
André Gomes Casa Pia Aktiv 116 / 136 40% 1 04.09.2026 -
Emiliano González Almagro Aktiv 106 / 107 40% 2 03.09.2026 -
James Trafford Leeds United Aktiv 131 / 132 40% 2 30.08.2026 -
Kaio Jorge Cruzeiro Aktiv 149 / 141 40% 1 30.08.2026 Mehr Infos nötig
Antony Alonso Deportivo Riestra Aktiv 111 / 117 40% 1 30.08.2026 -
Đorđe Petrović Bournemouth Aktiv 161 / 158 40% 1 27.08.2026 -
Ivan Zlobin Famalicao Aktiv 123 / 118 40% 1 27.08.2026 -
Luis Malagón Club America Aktiv 133 / 140 40% 1 26.08.2026 -
Andrew Flamengo Aktiv 117 / 134 40% 1 25.08.2026 -
Erick Reyes Toluca Aktiv 121 / 133 40% 1 25.08.2026 -
Tomoki Hayakawa Kashima Antlers Aktiv 142 / 130 40% 1 24.08.2026 -
Nicolas Schmid Portsmouth Aktiv 102 / 125 40% 1 24.08.2026 -
Henrique Araújo Casa Pia Aktiv 137 / 111 40% 1 24.08.2026 -
Breel Embolo Atlanta United FC Aktiv 141 / 141 40% 1 20.08.2026 -
Luca Langoni New England Revolution Aktiv 116 / 145 40% 1 17.08.2026 -
Romelu Castagne KV Oostende Aktiv 144 / 124 40% 1 17.08.2026 -
Fabrizio Correa Juventud Aktiv 107 / 128 40% 1 17.08.2026 -
Dayne St. Clair Inter Miami CF Aktiv 118 / 132 40% 1 17.08.2026 -
Samuel Soares Benfica Aktiv 132 / 131 40% 2 16.08.2026 -
Radek Vítek Middlesbrough Aktiv 110 / 120 40% 1 16.08.2026 -
Jakob Tånnander Farense Aktiv 98 / 111 40% 1 15.08.2026 -
Dudu Estrela da Amadora Aktiv 104 / 123 40% 1 13.08.2026 -
Louis Munteanu DC United Aktiv 126 / 106 40% 1 13.08.2026 -
Matvey Safonov Paris Saint-Germain Aktiv 131 / 165 40% 1 11.08.2026 -
Juan Diego Castillo Vitoria Guimaraes Aktiv 114 / 108 40% 1 09.08.2026 -
Thauan Lara Portimonense Aktiv 119 / 99 40% 1 08.08.2026 -
Gonçalo Inácio Sporting CP Aktiv 159 / 158 40% 1 08.08.2026 -
Sam Tickle Wigan Athletic Aktiv 131 / 141 40% 1 08.08.2026 -
Manuel Ugarte Manchester United Aktiv 139 / 139 40% 1 06.08.2026 -
Maximiliano Araújo Sporting CP Aktiv 130 / 146 40% 1 06.08.2026 -
Bright Arrey-Mbi Braga Aktiv 144 / 117 40% 1 05.08.2026 -
Miguel Nóbrega Vitoria Guimaraes Aktiv 128 / 129 40% 1 05.08.2026 -
Manu Benfica Aktiv 134 / 138 40% 1 04.08.2026 -
Ricard Sánchez Estoril Praia Aktiv 124 / 114 40% 1 04.08.2026 -
Fernando Tapia Club America Aktiv 142 / 110 40% 1 04.08.2026 -
Antonio Gomis Vizela Aktiv 122 / 135 40% 1 04.08.2026 -
Nabil Touaizi Alverca Aktiv 123 / 115 40% 1 02.08.2026 -
Alejandro Balde Barcelona Aktiv 171 / 144 40% 1 02.08.2026 -
Georginio Rutter Brighton Aktiv 137 / 157 40% 1 01.08.2026 -
Troy Parrott Betis Aktiv 121 / 144 40% 1 01.08.2026 -